Time;durP1;ratioP1;P1;durP2;ratioP2;P2;SDS_P1;SDS_P2;PMS_P1;PMS_P2;Temp;Humidity;BMP_temperature;BMP_pressure;BME280_temperature;BME280_humidity;BME280_pressure;Samples;Min_cycle;Max_cycle;Signal;HPM_P1;HPM_P2
2023/10/17 00:00:28;;;;;;;3.15;0.57;;;1.60;99.90;;;;;;5054660;28;20267;-95
2023/10/17 00:02:59;;;;;;;4.45;0.88;;;1.70;99.90;;;;;;5082002;28;20212;-93
2023/10/17 00:05:29;;;;;;;1.88;0.50;;;1.60;99.90;;;;;;5096862;28;20188;-92
2023/10/17 00:07:58;;;;;;;3.15;0.50;;;1.50;99.90;;;;;;5083985;28;20210;-93
2023/10/17 00:10:31;;;;;;;1.90;0.82;;;1.60;99.90;;;;;;5079667;28;20288;-93
2023/10/17 00:13:18;;;;;;;1.10;0.63;;;1.60;99.90;;;;;;5066855;28;20246;-92
2023/10/17 00:15:46;;;;;;;5.57;0.90;;;1.50;99.90;;;;;;5060468;28;20207;-94
2023/10/17 00:18:18;;;;;;;2.42;0.70;;;1.40;99.90;;;;;;5077313;28;20479;-93
2023/10/17 00:20:51;;;;;;;3.72;0.70;;;1.50;99.90;;;;;;5070788;28;20204;-91
2023/10/17 00:23:22;;;;;;;3.83;0.90;;;1.50;99.90;;;;;;5057923;28;20181;-93
2023/10/17 00:25:50;;;;;;;1.75;0.77;;;1.50;99.90;;;;;;5082714;28;20180;-92
2023/10/17 00:28:21;;;;;;;1.13;0.50;;;1.40;99.90;;;;;;5093410;28;20193;-92
2023/10/17 00:30:50;;;;;;;1.08;0.60;;;1.40;99.90;;;;;;5075657;28;20185;-93
2023/10/17 00:33:22;;;;;;;4.82;0.85;;;1.50;99.90;;;;;;5399663;22;20326;-84
2023/10/17 00:35:50;;;;;;;2.70;0.90;;;1.60;99.90;;;;;;5079241;28;20707;-87
2023/10/17 00:38:18;;;;;;;6.55;0.90;;;1.50;99.90;;;;;;5086891;28;20196;-86
2023/10/17 00:40:49;;;;;;;3.28;0.70;;;1.60;99.90;;;;;;5070304;28;20186;-87
2023/10/17 00:43:17;;;;;;;2.13;0.80;;;1.50;99.90;;;;;;5085586;28;20299;-85
2023/10/17 00:45:46;;;;;;;2.88;0.73;;;1.60;99.90;;;;;;5088883;28;20204;-86
2023/10/17 00:48:22;;;;;;;1.60;0.55;;;1.50;99.90;;;;;;5071443;28;20532;-86
2023/10/17 00:50:58;;;;;;;2.65;0.68;;;1.50;99.90;;;;;;5086452;28;20187;-86
2023/10/17 00:53:27;;;;;;;0.65;0.40;;;1.40;99.90;;;;;;5087133;28;20245;-87
2023/10/17 00:55:59;;;;;;;0.90;0.45;;;1.40;99.90;;;;;;5069932;28;20183;-86
2023/10/17 00:58:27;;;;;;;2.05;0.77;;;1.40;99.90;;;;;;5087108;28;20987;-86
2023/10/17 01:00:59;;;;;;;2.70;0.60;;;1.50;99.90;;;;;;5085179;28;20549;-87
2023/10/17 01:03:29;;;;;;;4.13;0.82;;;1.50;99.90;;;;;;5089023;27;20188;-86
2023/10/17 01:08:49;;;;;;;2.92;0.60;;;1.30;99.90;;;;;;5088747;28;20187;-86
2023/10/17 01:11:22;;;;;;;3.38;0.90;;;1.50;99.90;;;;;;5085939;28;20208;-85
2023/10/17 01:13:54;;;;;;;2.17;0.70;;;1.60;99.90;;;;;;5094296;28;20257;-86
2023/10/17 01:16:24;;;;;;;1.88;0.80;;;1.70;99.90;;;;;;5085201;28;20195;-86
2023/10/17 01:18:53;;;;;;;4.22;0.65;;;1.40;99.90;;;;;;5075365;28;20292;-87
2023/10/17 01:21:22;;;;;;;2.58;0.60;;;1.50;99.90;;;;;;5088596;28;20298;-88
2023/10/17 01:23:55;;;;;;;3.50;0.88;;;1.70;99.90;;;;;;5071103;28;20191;-85
2023/10/17 01:26:26;;;;;;;2.65;0.60;;;1.60;99.90;;;;;;5087824;28;20192;-86
2023/10/17 01:28:54;;;;;;;2.65;0.70;;;1.40;99.90;;;;;;5082607;28;20606;-86
2023/10/17 01:31:22;;;;;;;1.45;0.60;;;1.60;99.90;;;;;;5078155;28;20196;-85
2023/10/17 01:33:51;;;;;;;2.20;0.63;;;1.50;99.90;;;;;;5083099;28;20232;-87
2023/10/17 01:36:19;;;;;;;1.77;0.45;;;1.40;99.90;;;;;;5087312;28;20319;-86
2023/10/17 01:38:49;;;;;;;2.05;0.63;;;1.50;99.90;;;;;;5087825;28;20206;-85
2023/10/17 01:41:21;;;;;;;2.33;0.80;;;1.60;99.90;;;;;;5081901;28;20282;-84
2023/10/17 01:43:50;;;;;;;2.70;0.70;;;1.60;99.90;;;;;;5087892;28;20188;-86
2023/10/17 01:46:28;;;;;;;2.17;0.60;;;1.60;99.90;;;;;;5071051;28;20287;-86
2023/10/17 01:49:00;;;;;;;4.65;0.85;;;1.60;99.90;;;;;;5087402;28;20187;-86
2023/10/17 01:51:28;;;;;;;1.30;0.60;;;1.50;99.90;;;;;;5082032;28;20672;-85
2023/10/17 01:53:56;;;;;;;2.72;0.80;;;1.60;99.90;;;;;;5085167;28;20660;-87
2023/10/17 01:56:28;;;;;;;1.60;0.57;;;1.50;99.90;;;;;;5075349;28;20204;-86
2023/10/17 01:59:04;;;;;;;2.80;0.90;;;1.50;99.90;;;;;;5072676;28;20295;-86
2023/10/17 02:01:36;;;;;;;2.10;0.65;;;1.60;99.90;;;;;;5076519;28;20214;-86
2023/10/17 02:04:05;;;;;;;2.42;0.85;;;1.50;99.90;;;;;;5069137;28;20285;-85
2023/10/17 02:06:33;;;;;;;1.42;0.50;;;1.50;99.90;;;;;;5078326;28;20189;-87
2023/10/17 02:09:20;;;;;;;1.10;0.63;;;1.50;99.90;;;;;;5081733;28;20965;-87
2023/10/17 02:11:50;;;;;;;3.40;0.60;;;1.50;99.90;;;;;;5067860;28;20184;-87
2023/10/17 02:14:18;;;;;;;3.95;0.70;;;1.50;99.90;;;;;;5083787;28;20195;-86
2023/10/17 02:16:46;;;;;;;4.05;0.63;;;1.50;99.90;;;;;;5082061;28;20196;-86
2023/10/17 02:19:14;;;;;;;2.15;0.60;;;1.40;99.90;;;;;;5075797;28;20205;-87
2023/10/17 02:21:49;;;;;;;3.95;0.88;;;1.50;99.90;;;;;;5072340;28;20212;-87
2023/10/17 02:24:20;;;;;;;1.05;0.55;;;1.50;99.90;;;;;;5086347;28;20184;-85
2023/10/17 02:27:00;;;;;;;3.15;0.80;;;1.50;99.90;;;;;;5093873;28;20188;-86
2023/10/17 02:29:29;;;;;;;2.35;0.73;;;1.40;99.90;;;;;;5095794;28;20191;-87
2023/10/17 02:31:58;;;;;;;1.52;0.90;;;1.40;99.90;;;;;;5089814;28;20184;-86
2023/10/17 02:34:29;;;;;;;3.92;0.70;;;1.40;99.90;;;;;;5082036;28;20232;-85
2023/10/17 02:37:00;;;;;;;2.38;0.70;;;1.40;99.90;;;;;;5080464;28;20196;-85
2023/10/17 02:39:28;;;;;;;2.22;0.95;;;1.40;99.90;;;;;;5070335;28;20650;-86
2023/10/17 02:42:06;;;;;;;5.57;0.80;;;1.40;99.90;;;;;;5081178;28;20200;-87
2023/10/17 02:44:39;;;;;;;2.80;0.98;;;1.30;99.90;;;;;;5096839;28;20196;-86
2023/10/17 02:47:12;;;;;;;3.20;0.75;;;1.30;99.90;;;;;;5088776;28;20176;-86
2023/10/17 02:49:43;;;;;;;5.40;1.20;;;1.30;99.90;;;;;;5089491;28;20288;-85
2023/10/17 02:52:11;;;;;;;2.55;0.80;;;1.20;99.90;;;;;;5087963;28;20192;-87
2023/10/17 02:54:57;;;;;;;3.90;1.20;;;1.20;99.90;;;;;;5087956;28;20199;-86
2023/10/17 02:57:27;;;;;;;4.15;1.23;;;1.20;99.90;;;;;;5087535;28;20279;-87
2023/10/17 02:59:57;;;;;;;4.45;1.15;;;1.20;99.90;;;;;;5088436;28;20291;-84
2023/10/17 03:02:36;;;;;;;4.43;1.20;;;1.20;99.90;;;;;;5065288;28;20204;-87
2023/10/17 03:05:11;;;;;;;2.60;0.93;;;1.20;99.90;;;;;;5086696;28;20184;-86
2023/10/17 03:07:42;;;;;;;3.58;1.17;;;1.20;99.90;;;;;;5082245;28;20184;-86
2023/10/17 03:10:20;;;;;;;2.65;1.00;;;1.20;99.90;;;;;;5081991;28;20184;-85
2023/10/17 03:12:55;;;;;;;4.13;1.25;;;1.20;99.90;;;;;;5084590;28;20203;-85
2023/10/17 03:15:29;;;;;;;5.90;1.55;;;1.10;99.90;;;;;;5090084;28;20274;-85
2023/10/17 03:18:00;;;;;;;2.08;0.82;;;1.20;99.90;;;;;;5080021;28;20296;-86
2023/10/17 03:20:41;;;;;;;4.15;1.20;;;1.20;99.90;;;;;;5084266;28;20287;-86
2023/10/17 03:23:09;;;;;;;2.13;1.02;;;1.20;99.90;;;;;;5088781;28;20223;-86
2023/10/17 03:25:37;;;;;;;2.33;0.98;;;1.20;99.90;;;;;;5089501;28;20184;-87
2023/10/17 03:28:13;;;;;;;3.75;0.90;;;1.20;99.90;;;;;;5090446;28;20676;-86
2023/10/17 03:30:42;;;;;;;3.38;1.08;;;1.20;99.90;;;;;;5073301;28;20192;-86
2023/10/17 03:33:14;;;;;;;2.25;0.80;;;1.20;99.90;;;;;;5065338;28;20232;-86
2023/10/17 03:38:33;;;;;;;6.57;0.90;;;1.30;99.90;;;;;;5083631;28;20200;-86
2023/10/17 03:41:03;;;;;;;1.90;0.95;;;1.30;99.90;;;;;;5069613;28;20224;-88
2023/10/17 03:43:45;;;;;;;1.65;0.70;;;1.30;99.90;;;;;;5069572;28;20216;-86
2023/10/17 03:46:15;;;;;;;1.75;0.75;;;1.40;99.90;;;;;;5072088;28;20188;-87
2023/10/17 03:48:49;;;;;;;1.25;0.68;;;1.40;99.90;;;;;;5076468;28;20199;-85
2023/10/17 03:51:24;;;;;;;1.42;0.73;;;1.40;99.90;;;;;;5090013;28;20963;-87
2023/10/17 03:53:54;;;;;;;3.83;0.65;;;1.40;99.90;;;;;;5084253;28;20218;-87
2023/10/17 03:56:24;;;;;;;1.88;0.55;;;1.40;99.90;;;;;;5087879;28;20185;-86
2023/10/17 04:01:41;;;;;;;2.10;0.77;;;1.30;99.90;;;;;;5087285;28;21265;-87
2023/10/17 04:04:09;;;;;;;1.20;0.60;;;1.30;99.90;;;;;;5087450;28;20188;-86
2023/10/17 04:06:56;;;;;;;1.10;0.40;;;1.30;99.90;;;;;;5077808;28;20316;-87
2023/10/17 04:09:27;;;;;;;0.98;0.40;;;1.30;99.90;;;;;;5063937;28;20202;-86
2023/10/17 04:11:58;;;;;;;3.13;0.57;;;1.40;99.90;;;;;;5087161;28;20309;-86
2023/10/17 04:14:50;;;;;;;1.05;0.55;;;1.30;99.90;;;;;;5085833;28;20733;-85
2023/10/17 04:17:23;;;;;;;1.55;0.50;;;1.40;99.90;;;;;;5080888;28;20563;-86
2023/10/17 04:19:58;;;;;;;0.93;0.40;;;1.40;99.90;;;;;;5064275;28;20189;-87
2023/10/17 04:22:29;;;;;;;2.83;0.55;;;1.50;99.90;;;;;;5078249;28;20221;-85
2023/10/17 04:25:00;;;;;;;2.22;0.57;;;1.50;99.90;;;;;;5096385;28;20188;-87
2023/10/17 04:27:34;;;;;;;2.47;0.70;;;1.50;99.90;;;;;;5070161;28;20275;-87
2023/10/17 04:30:09;;;;;;;1.58;0.60;;;1.50;99.90;;;;;;5071672;28;20265;-87
2023/10/17 04:32:38;;;;;;;5.22;1.02;;;1.50;99.90;;;;;;5087338;28;20184;-86
2023/10/17 04:35:07;;;;;;;2.20;0.70;;;1.60;99.90;;;;;;5088848;28;20265;-87
2023/10/17 04:37:37;;;;;;;2.47;0.70;;;1.60;99.90;;;;;;5079152;28;20194;-87
2023/10/17 04:45:20;;;;;;;4.85;0.93;;;1.70;99.90;;;;;;5076846;28;20180;-87
2023/10/17 04:47:53;;;;;;;2.25;0.55;;;1.70;99.90;;;;;;5086671;28;20208;-86
2023/10/17 04:50:40;;;;;;;1.27;0.50;;;1.70;99.90;;;;;;5083570;28;20188;-87
2023/10/17 04:53:08;;;;;;;1.77;0.52;;;1.70;99.90;;;;;;5083543;28;20187;-86
2023/10/17 04:56:00;;;;;;;10.38;1.02;;;1.80;99.90;;;;;;5065216;28;20193;-85
2023/10/17 04:58:39;;;;;;;3.47;0.80;;;1.80;99.90;;;;;;5077412;28;20188;-85
2023/10/17 05:03:50;;;;;;;1.00;0.50;;;1.80;99.90;;;;;;5085260;28;20587;-87
2023/10/17 05:06:21;;;;;;;1.60;0.45;;;1.80;99.90;;;;;;5064386;28;20212;-86
2023/10/17 05:09:09;;;;;;;2.67;0.70;;;1.90;99.90;;;;;;5069585;28;20190;-86
2023/10/17 06:18:17;;;;;;;2.35;0.70;;;2.10;99.90;;;;;;5086289;28;20283;-87
2023/10/17 06:34:39;;;;;;;2.10;0.55;;;2.30;99.90;;;;;;5079975;28;20697;-88
2023/10/17 06:37:09;;;;;;;8.63;0.90;;;2.40;99.90;;;;;;5090651;28;20200;-86
2023/10/17 06:39:47;;;;;;;2.45;0.80;;;2.40;99.90;;;;;;5085060;28;20319;-88
2023/10/17 06:42:15;;;;;;;6.72;0.93;;;2.40;99.90;;;;;;5086863;28;20204;-86
2023/10/17 06:44:54;;;;;;;3.85;0.82;;;2.50;99.90;;;;;;5071437;28;20197;-86
2023/10/17 06:47:31;;;;;;;6.03;0.85;;;2.40;99.90;;;;;;5085831;28;20200;-87
2023/10/17 06:55:29;;;;;;;2.65;0.80;;;2.50;99.90;;;;;;5078048;28;20180;-87
2023/10/17 06:58:08;;;;;;;2.00;0.90;;;2.60;99.90;;;;;;5074567;28;20195;-87
2023/10/17 07:00:51;;;;;;;3.90;0.90;;;2.60;99.90;;;;;;5087345;28;20701;-86
2023/10/17 07:03:26;;;;;;;3.53;0.80;;;2.60;99.90;;;;;;5087623;28;20305;-87
2023/10/17 07:06:11;;;;;;;2.88;0.80;;;2.60;99.90;;;;;;5070839;28;20186;-86
2023/10/17 07:08:41;;;;;;;6.57;0.77;;;2.60;99.90;;;;;;5070140;28;20204;-87
2023/10/17 07:13:54;;;;;;;2.20;0.70;;;2.70;99.90;;;;;;5074784;28;20196;-87
2023/10/17 07:16:27;;;;;;;2.22;0.73;;;2.70;99.90;;;;;;5087669;28;20200;-87
2023/10/17 07:18:55;;;;;;;3.03;0.77;;;2.80;99.90;;;;;;5056085;28;20199;-86
2023/10/17 07:21:27;;;;;;;3.10;0.60;;;2.80;99.90;;;;;;5069528;28;20409;-86
2023/10/17 07:23:55;;;;;;;4.35;0.80;;;2.80;99.90;;;;;;5086104;28;20697;-87
2023/10/17 07:28:57;;;;;;;0.93;0.32;;;3.00;99.90;;;;;;5089245;28;20200;-86
2023/10/17 07:31:24;;;;;;;3.17;0.57;;;3.00;99.90;;;;;;5070510;28;20262;-87
2023/10/17 07:36:39;;;;;;;2.78;0.50;;;3.00;99.90;;;;;;5078258;28;20275;-87
2023/10/17 07:39:22;;;;;;;4.15;0.60;;;3.10;99.90;;;;;;5087637;28;20189;-86
2023/10/17 07:41:54;;;;;;;6.43;1.30;;;3.10;99.90;;;;;;5087745;28;20200;-86
2023/10/17 07:44:25;;;;;;;2.72;0.70;;;3.20;99.90;;;;;;5080174;28;20223;-86
2023/10/17 07:47:19;;;;;;;2.67;0.57;;;3.30;99.90;;;;;;5077172;28;20200;-87
2023/10/17 07:49:47;;;;;;;3.38;0.60;;;3.50;99.90;;;;;;5077031;28;20180;-86
2023/10/17 07:52:22;;;;;;;1.90;0.70;;;3.50;99.90;;;;;;5073470;28;20204;-87
2023/10/17 07:54:57;;;;;;;1.25;0.68;;;3.50;99.90;;;;;;5087916;28;20191;-87
2023/10/17 07:57:26;;;;;;;5.70;0.70;;;3.70;99.90;;;;;;5068026;28;20204;-86
2023/10/17 07:59:57;;;;;;;3.40;0.60;;;3.80;99.90;;;;;;5062328;28;20189;-86
2023/10/17 08:02:30;;;;;;;2.72;0.77;;;3.90;99.90;;;;;;5087830;28;20843;-87
2023/10/17 08:05:16;;;;;;;2.35;0.82;;;3.90;99.90;;;;;;5084077;28;20235;-87
2023/10/17 08:07:49;;;;;;;0.85;0.55;;;3.80;99.90;;;;;;5081942;28;20193;-87
2023/10/17 08:10:29;;;;;;;2.17;0.60;;;3.70;99.90;;;;;;5075623;28;20184;-87
2023/10/17 08:12:57;;;;;;;3.92;0.52;;;3.70;99.90;;;;;;5087097;28;20578;-86
2023/10/17 08:15:34;;;;;;;2.38;0.70;;;3.70;99.90;;;;;;5070149;28;20184;-86
2023/10/17 08:18:14;;;;;;;5.20;0.75;;;3.80;99.90;;;;;;5087569;28;20673;-87
2023/10/17 08:23:30;;;;;;;2.00;0.68;;;3.90;99.90;;;;;;5089301;28;20208;-87
2023/10/17 08:26:03;;;;;;;5.30;0.77;;;4.00;99.90;;;;;;5088724;28;20187;-87
2023/10/17 08:28:32;;;;;;;2.58;0.60;;;4.00;99.90;;;;;;5078585;28;20196;-87
2023/10/17 08:36:48;;;;;;;6.05;1.05;;;4.40;99.90;;;;;;5088087;28;20198;-87
2023/10/17 08:42:14;;;;;;;2.30;0.60;;;4.60;99.90;;;;;;5085937;28;20203;-87
2023/10/17 08:44:46;;;;;;;2.55;0.63;;;4.60;99.90;;;;;;5088797;28;20298;-87
2023/10/17 08:47:18;;;;;;;5.40;0.60;;;4.70;99.90;;;;;;5068631;28;20287;-87
2023/10/17 08:49:49;;;;;;;1.98;0.70;;;4.70;99.90;;;;;;5087883;28;20633;-87
2023/10/17 08:52:25;;;;;;;3.53;0.73;;;4.70;99.90;;;;;;5072429;28;20649;-87
2023/10/17 08:54:54;;;;;;;2.38;0.60;;;4.70;99.90;;;;;;5069297;28;20200;-87
2023/10/17 08:57:23;;;;;;;1.85;0.60;;;4.60;99.90;;;;;;5085428;28;20270;-87
2023/10/17 09:05:18;;;;;;;1.88;0.70;;;4.50;99.90;;;;;;5074325;28;20220;-87
2023/10/17 09:07:47;;;;;;;2.08;0.70;;;4.50;99.90;;;;;;5088825;28;20196;-87
2023/10/17 09:10:38;;;;;;;6.82;0.80;;;4.30;99.90;;;;;;5085649;28;20198;-86
2023/10/17 09:15:57;;;;;;;1.77;0.70;;;4.30;99.90;;;;;;5086595;28;20219;-87
2023/10/17 09:18:32;;;;;;;2.45;0.70;;;4.30;99.90;;;;;;5088119;28;20687;-87
2023/10/17 09:21:04;;;;;;;1.83;0.73;;;4.30;99.90;;;;;;5087972;28;20210;-86
2023/10/17 09:23:32;;;;;;;1.95;0.80;;;4.40;99.90;;;;;;5084620;28;20282;-87
2023/10/17 09:26:07;;;;;;;2.70;1.00;;;4.30;99.90;;;;;;5076042;28;20224;-87
2023/10/17 09:28:35;;;;;;;2.65;0.90;;;4.30;99.90;;;;;;5084983;28;20192;-87
2023/10/17 09:31:15;;;;;;;4.00;1.15;;;4.40;99.90;;;;;;5059842;28;20184;-86
2023/10/17 09:33:43;;;;;;;2.28;1.30;;;4.40;99.90;;;;;;5080207;28;20334;-87
2023/10/17 09:36:13;;;;;;;6.00;1.20;;;4.40;99.90;;;;;;5086875;28;20199;-86
2023/10/17 09:38:45;;;;;;;2.65;0.85;;;4.50;99.90;;;;;;5070947;28;20191;-86
2023/10/17 09:41:17;;;;;;;4.72;0.90;;;4.50;99.90;;;;;;5079327;28;20684;-86
2023/10/17 09:43:49;;;;;;;1.70;0.73;;;4.60;99.90;;;;;;5085852;28;20277;-87
2023/10/17 09:46:27;;;;;;;6.78;1.08;;;4.70;99.90;;;;;;5084919;28;20274;-87
2023/10/17 09:49:00;;;;;;;3.22;0.80;;;4.80;99.90;;;;;;5084961;28;20192;-87
2023/10/17 09:51:33;;;;;;;3.28;1.05;;;4.80;99.90;;;;;;5061371;28;20283;-87
2023/10/17 09:54:04;;;;;;;4.93;0.98;;;4.90;99.90;;;;;;5090491;28;20311;-86
2023/10/17 09:56:41;;;;;;;1.60;0.70;;;4.90;99.90;;;;;;5068766;28;20223;-87
2023/10/17 09:59:13;;;;;;;2.63;0.82;;;4.90;99.90;;;;;;5087691;28;20225;-87
2023/10/17 10:01:45;;;;;;;2.72;0.60;;;5.00;99.90;;;;;;5049675;28;20196;-87
2023/10/17 10:04:17;;;;;;;3.03;0.70;;;5.00;99.90;;;;;;5081024;28;20232;-86
2023/10/17 10:06:45;;;;;;;3.13;0.88;;;5.10;99.90;;;;;;5083778;28;20192;-87
2023/10/17 10:09:15;;;;;;;1.58;0.68;;;5.10;99.90;;;;;;5070770;28;20257;-86
2023/10/17 10:12:03;;;;;;;1.15;0.60;;;5.10;99.90;;;;;;5055863;28;20188;-87
2023/10/17 10:14:33;;;;;;;2.75;0.80;;;5.10;99.90;;;;;;5074281;28;20276;-86
2023/10/17 10:17:04;;;;;;;6.75;0.80;;;5.10;99.90;;;;;;5060520;28;20203;-87
2023/10/17 10:19:41;;;;;;;2.45;0.60;;;5.20;99.90;;;;;;5074969;28;20260;-87
2023/10/17 10:22:17;;;;;;;3.47;0.60;;;5.20;99.90;;;;;;5070320;28;20204;-87
2023/10/17 10:24:46;;;;;;;1.65;0.40;;;5.30;99.90;;;;;;5085105;28;20208;-87
2023/10/17 10:27:34;;;;;;;1.73;0.50;;;5.30;99.90;;;;;;5084001;28;20193;-87
2023/10/17 10:30:30;;;;;;;1.60;0.70;;;5.30;99.90;;;;;;5073201;28;20267;-88
2023/10/17 10:33:01;;;;;;;4.15;0.68;;;5.30;99.90;;;;;;5072802;28;20216;-88
2023/10/17 10:35:33;;;;;;;4.15;0.88;;;5.30;99.90;;;;;;5077167;28;20196;-88
2023/10/17 10:38:01;;;;;;;1.15;0.57;;;5.30;99.90;;;;;;5086087;28;20195;-88
2023/10/17 10:40:32;;;;;;;1.20;0.70;;;5.30;99.90;;;;;;5070733;28;20193;-88
2023/10/17 10:43:04;;;;;;;2.85;0.70;;;5.40;99.90;;;;;;5095357;28;20680;-88
2023/10/17 10:45:40;;;;;;;2.38;0.70;;;5.40;99.90;;;;;;5078736;28;20240;-88
2023/10/17 10:48:17;;;;;;;0.90;0.60;;;5.50;99.90;;;;;;5078799;28;20192;-87
2023/10/17 10:50:47;;;;;;;1.30;0.52;;;5.50;99.90;;;;;;5060599;28;20676;-88
2023/10/17 10:53:31;;;;;;;4.55;0.75;;;5.60;99.90;;;;;;5083237;28;20206;-86
2023/10/17 10:56:02;;;;;;;1.05;0.52;;;5.60;99.90;;;;;;5084704;28;20672;-87
2023/10/17 10:58:33;;;;;;;4.40;0.80;;;5.70;99.90;;;;;;5073949;28;20258;-88
2023/10/17 11:01:04;;;;;;;2.22;0.70;;;5.80;99.90;;;;;;5089215;28;20177;-88
2023/10/17 11:03:32;;;;;;;3.10;0.77;;;5.80;99.90;;;;;;5087594;28;20196;-87
2023/10/17 11:06:04;;;;;;;2.75;0.70;;;5.80;99.90;;;;;;5061366;28;20277;-87
2023/10/17 11:08:37;;;;;;;2.45;0.73;;;5.80;99.90;;;;;;5065897;28;20193;-88
2023/10/17 11:11:05;;;;;;;2.97;0.70;;;5.80;99.90;;;;;;5062509;28;20280;-87
2023/10/17 11:13:38;;;;;;;3.30;0.50;;;5.90;99.90;;;;;;5073239;28;20183;-87
2023/10/17 11:16:07;;;;;;;2.92;0.50;;;6.00;99.90;;;;;;5072069;28;20253;-88
2023/10/17 11:18:39;;;;;;;2.45;0.70;;;6.00;99.90;;;;;;5073979;28;20188;-88
2023/10/17 11:21:10;;;;;;;2.00;0.50;;;6.00;99.90;;;;;;5088518;28;20211;-87
2023/10/17 11:23:41;;;;;;;1.15;0.65;;;5.90;99.90;;;;;;5089033;28;20653;-87
2023/10/17 11:26:11;;;;;;;1.13;0.70;;;5.90;99.90;;;;;;5077546;28;20203;-87
2023/10/17 11:28:54;;;;;;;3.53;0.80;;;6.00;99.90;;;;;;5087612;28;20188;-88
2023/10/17 11:31:24;;;;;;;1.73;0.70;;;6.00;99.90;;;;;;5073771;28;20281;-89
2023/10/17 11:34:22;;;;;;;1.65;0.60;;;6.10;99.90;;;;;;5084244;28;20232;-87
2023/10/17 11:36:51;;;;;;;1.95;0.60;;;6.10;99.90;;;;;;5090744;28;20219;-88
2023/10/17 11:39:20;;;;;;;5.97;0.82;;;6.10;99.90;;;;;;5073708;28;20676;-86
2023/10/17 11:41:53;;;;;;;1.40;0.60;;;6.10;99.90;;;;;;5070598;28;20193;-88
2023/10/17 11:44:23;;;;;;;1.52;0.68;;;6.10;99.90;;;;;;5083559;28;20199;-88
2023/10/17 11:46:55;;;;;;;2.53;0.70;;;6.10;99.90;;;;;;5087100;28;20189;-86
2023/10/17 11:49:28;;;;;;;1.58;0.60;;;6.20;99.90;;;;;;5070186;28;20241;-88
2023/10/17 11:52:05;;;;;;;2.25;0.70;;;6.20;99.90;;;;;;5090375;28;20756;-87
2023/10/17 11:55:33;;;;;;;1.20;0.60;;;6.30;99.90;;;;;;5081100;28;20191;-86
2023/10/17 11:57:53;;;;;;;2.13;0.70;;;6.30;99.90;;;;;;5082461;28;20284;-87
2023/10/17 12:00:28;;;;;;;3.03;0.60;;;6.20;99.90;;;;;;5060146;28;20195;-87
2023/10/17 12:02:56;;;;;;;0.95;0.50;;;6.20;99.90;;;;;;5093974;27;20272;-87
2023/10/17 12:05:27;;;;;;;3.00;0.80;;;6.20;99.90;;;;;;5086708;28;20204;-88
2023/10/17 12:07:58;;;;;;;1.58;0.80;;;6.10;99.90;;;;;;5089884;28;20269;-86
2023/10/17 12:10:28;;;;;;;2.00;0.70;;;6.20;99.90;;;;;;5079829;28;20242;-87
2023/10/17 12:13:04;;;;;;;1.63;0.50;;;6.20;99.90;;;;;;5088269;28;20186;-87
2023/10/17 12:15:32;;;;;;;1.90;0.70;;;6.20;99.90;;;;;;5055968;28;20288;-87
2023/10/17 12:18:00;;;;;;;2.55;0.50;;;6.20;99.90;;;;;;5085320;28;20193;-87
2023/10/17 12:20:27;;;;;;;1.67;0.65;;;6.10;99.90;;;;;;5060364;28;20216;-87
2023/10/17 12:22:56;;;;;;;2.70;0.73;;;6.20;99.90;;;;;;5068439;28;20193;-88
2023/10/17 12:25:24;;;;;;;1.30;0.52;;;6.20;99.90;;;;;;5086522;28;20642;-87
2023/10/17 12:27:56;;;;;;;2.33;0.75;;;6.20;99.90;;;;;;5086338;28;20185;-86
2023/10/17 12:30:28;;;;;;;2.35;0.80;;;6.10;99.90;;;;;;5076236;28;20189;-88
2023/10/17 12:32:56;;;;;;;2.00;0.68;;;6.10;99.90;;;;;;5099111;28;20228;-87
2023/10/17 12:35:27;;;;;;;3.13;0.65;;;6.10;99.90;;;;;;5084667;28;20207;-87
2023/10/17 12:37:59;;;;;;;0.63;0.50;;;6.10;99.90;;;;;;5081077;28;20180;-87
2023/10/17 12:40:30;;;;;;;1.00;0.60;;;6.20;99.90;;;;;;5092394;28;20318;-87
2023/10/17 12:42:58;;;;;;;1.73;0.60;;;6.10;99.90;;;;;;5072690;28;20215;-87
2023/10/17 12:45:26;;;;;;;4.68;0.65;;;6.10;99.90;;;;;;5087296;28;20219;-87
2023/10/17 12:47:54;;;;;;;1.60;0.55;;;6.10;99.90;;;;;;5075138;28;20296;-87
2023/10/17 12:50:23;;;;;;;1.30;0.60;;;6.10;99.90;;;;;;5079326;28;20219;-87
2023/10/17 12:52:51;;;;;;;3.15;0.85;;;6.10;99.90;;;;;;5079716;28;20291;-87
2023/10/17 12:55:19;;;;;;;2.88;0.60;;;6.10;99.90;;;;;;5077992;28;20266;-88
2023/10/17 12:57:48;;;;;;;2.50;0.63;;;6.10;99.90;;;;;;5086928;28;20205;-87
2023/10/17 13:00:16;;;;;;;5.35;1.00;;;6.00;99.90;;;;;;5087121;28;20194;-87
2023/10/17 13:02:43;;;;;;;2.13;0.68;;;6.00;99.90;;;;;;5072190;28;20199;-88
2023/10/17 13:05:12;;;;;;;4.20;0.60;;;6.00;99.90;;;;;;5067657;28;20302;-87
2023/10/17 13:07:41;;;;;;;3.88;0.82;;;6.00;99.90;;;;;;5055098;28;20658;-87
2023/10/17 13:10:11;;;;;;;3.85;0.70;;;6.00;99.90;;;;;;5068846;28;20253;-88
2023/10/17 13:12:40;;;;;;;3.55;0.88;;;6.00;99.90;;;;;;5071197;28;20265;-87
2023/10/17 13:15:09;;;;;;;0.68;0.43;;;6.00;99.90;;;;;;5088202;28;20219;-86
2023/10/17 13:17:36;;;;;;;1.38;0.60;;;6.00;99.90;;;;;;5085228;28;20226;-87
2023/10/17 13:20:09;;;;;;;1.55;0.70;;;5.90;99.90;;;;;;5077193;28;20197;-87
2023/10/17 13:22:49;;;;;;;5.25;0.95;;;5.90;99.90;;;;;;5081449;28;20262;-88
2023/10/17 13:25:19;;;;;;;3.25;0.98;;;6.00;99.90;;;;;;5087184;28;20246;-87
2023/10/17 13:27:47;;;;;;;2.38;0.60;;;5.90;99.90;;;;;;5072386;28;20679;-85
2023/10/17 13:30:15;;;;;;;0.73;0.43;;;6.00;99.90;;;;;;5087136;28;20217;-87
2023/10/17 13:32:44;;;;;;;1.33;0.60;;;5.90;99.90;;;;;;5087619;28;20547;-87
2023/10/17 13:35:12;;;;;;;1.52;0.70;;;5.90;99.90;;;;;;5085202;28;20204;-88
2023/10/17 13:37:51;;;;;;;2.63;0.63;;;6.00;99.90;;;;;;5068185;28;20203;-86
2023/10/17 13:40:21;;;;;;;3.75;0.80;;;6.00;99.90;;;;;;5086332;28;20168;-86
2023/10/17 13:42:50;;;;;;;2.38;0.50;;;6.00;99.90;;;;;;5077598;28;20581;-87
2023/10/17 13:45:21;;;;;;;2.15;0.90;;;6.00;99.90;;;;;;5085261;28;20906;-87
2023/10/17 13:47:57;;;;;;;1.88;0.75;;;6.00;99.90;;;;;;5088392;28;20238;-86
2023/10/17 13:50:25;;;;;;;1.20;0.60;;;6.00;99.90;;;;;;5084307;28;20200;-87
2023/10/17 13:52:54;;;;;;;2.97;0.63;;;6.00;99.90;;;;;;5070477;28;20258;-87
2023/10/17 13:55:27;;;;;;;2.38;0.85;;;6.00;99.90;;;;;;5070461;28;20188;-87
2023/10/17 13:58:00;;;;;;;6.05;0.85;;;6.10;99.90;;;;;;5084758;28;20188;-87
2023/10/17 14:00:42;;;;;;;2.03;0.50;;;6.10;99.90;;;;;;5084186;28;20196;-88
2023/10/17 14:03:14;;;;;;;1.77;0.70;;;6.10;99.90;;;;;;5084472;28;20185;-86
2023/10/17 14:05:47;;;;;;;1.88;0.60;;;6.10;99.90;;;;;;5087562;28;20636;-87
2023/10/17 14:08:21;;;;;;;1.77;0.80;;;6.00;99.90;;;;;;5066415;28;20192;-87
2023/10/17 14:10:49;;;;;;;2.25;0.63;;;6.10;99.90;;;;;;5068247;28;20196;-87
2023/10/17 14:13:20;;;;;;;2.65;0.73;;;6.10;99.90;;;;;;5072828;28;20272;-87
2023/10/17 14:15:51;;;;;;;1.65;0.85;;;6.10;99.90;;;;;;5067408;28;20557;-86
2023/10/17 14:18:29;;;;;;;1.30;0.70;;;6.00;99.90;;;;;;5079241;28;20260;-87
2023/10/17 14:23:58;;;;;;;2.92;0.90;;;6.00;99.90;;;;;;5069590;28;20216;-87
2023/10/17 14:26:29;;;;;;;1.33;0.70;;;6.00;99.90;;;;;;5064202;28;20212;-87
2023/10/17 14:29:00;;;;;;;2.83;0.88;;;6.10;99.90;;;;;;5087448;28;20215;-86
2023/10/17 14:31:29;;;;;;;1.58;0.70;;;6.00;99.90;;;;;;5080431;28;20195;-86
2023/10/17 14:33:59;;;;;;;2.22;0.63;;;6.10;99.90;;;;;;5090777;28;20232;-86
2023/10/17 14:36:27;;;;;;;7.13;1.30;;;6.10;99.90;;;;;;5074470;28;20200;-87
2023/10/17 14:38:55;;;;;;;3.60;0.82;;;6.10;99.90;;;;;;5082577;28;20192;-87
2023/10/17 14:41:23;;;;;;;2.35;0.60;;;6.10;99.90;;;;;;5071313;28;20243;-86
2023/10/17 14:43:51;;;;;;;1.25;0.60;;;6.10;99.90;;;;;;5065027;28;20228;-87
2023/10/17 14:46:22;;;;;;;3.35;0.80;;;6.10;99.90;;;;;;5091356;28;20211;-87
2023/10/17 14:48:50;;;;;;;1.75;0.65;;;6.10;99.90;;;;;;5085401;28;20216;-87
2023/10/17 14:51:19;;;;;;;2.47;0.80;;;6.10;99.90;;;;;;5084281;28;20192;-86
2023/10/17 14:53:47;;;;;;;1.85;0.60;;;6.20;99.90;;;;;;5074964;28;20189;-87
2023/10/17 14:56:20;;;;;;;2.45;0.90;;;6.20;99.90;;;;;;5074931;28;20188;-87
2023/10/17 14:58:52;;;;;;;4.78;0.63;;;6.20;99.90;;;;;;5089173;28;20185;-87
2023/10/17 15:01:21;;;;;;;2.10;0.73;;;6.20;99.90;;;;;;5073875;28;20195;-87
2023/10/17 15:03:50;;;;;;;1.38;0.70;;;6.20;99.90;;;;;;5090423;28;20195;-87
2023/10/17 15:06:19;;;;;;;2.53;0.75;;;6.20;99.90;;;;;;5098228;27;20219;-86
2023/10/17 15:08:47;;;;;;;3.90;0.80;;;6.20;99.90;;;;;;5078019;28;20181;-88
2023/10/17 15:11:14;;;;;;;3.35;0.80;;;6.30;99.90;;;;;;5061944;28;20551;-88
2023/10/17 15:13:42;;;;;;;3.33;0.90;;;6.30;99.90;;;;;;5069756;28;20968;-89
2023/10/17 15:16:20;;;;;;;3.70;0.70;;;6.30;99.90;;;;;;5093496;28;20200;-89
2023/10/17 15:18:51;;;;;;;3.80;0.60;;;6.30;99.90;;;;;;5091974;28;20294;-89
2023/10/17 15:21:21;;;;;;;9.43;1.00;;;6.30;99.90;;;;;;5073544;28;20191;-90
2023/10/17 15:23:51;;;;;;;1.98;0.70;;;6.30;99.90;;;;;;5071927;28;20263;-89
2023/10/17 15:26:24;;;;;;;3.60;0.90;;;6.30;99.90;;;;;;5072025;28;20228;-90
2023/10/17 15:28:53;;;;;;;6.15;0.80;;;6.30;99.90;;;;;;5080553;28;20657;-89
2023/10/17 15:31:21;;;;;;;2.83;0.70;;;6.40;99.90;;;;;;5088993;28;20192;-87
2023/10/17 15:33:49;;;;;;;3.75;0.98;;;6.40;99.90;;;;;;5055122;28;20235;-89
2023/10/17 15:36:25;;;;;;;4.05;0.70;;;6.40;99.90;;;;;;5066733;28;20226;-90